1NY0 weather

Woodlawn Beach State Park Heliport
Hamburg, New York, United States

Public forecast

Using degrees Fahrenheit for public forecast. Weather courtesy of forecast.io.

METAR (pilot weather report)

Closest report is Buffalo Niagara International Airport, 10.5 nm (19.5 km) NNE. Retrieved 2019/06/26 22:54 UTC (23 minutes ago):

KBUF 262254Z 25013G19KT 10SM FEW040 FEW220 FEW300 25/14 A3002 RMK AO2 SLP162 T02500139

TAF (pilot weather forecast)

Closest forecast is Buffalo Niagara International Airport, 10.5 nm (19.5 km) NNE. Retrieved 2019/06/26 18:30 UTC (5 hours ago):

TAF KBUF 261727Z 2618/2718 24018G26KT P6SM FEW040 FM262300 23012KT P6SM SKC FM270300 22005KT P6SM SCT250 FM271500 24010KT P6SM SCT250